sensor_id;sensor_type;location;lat;lon;timestamp;pressure;altitude;pressure_sealevel;temperature;humidity
63819;BME280;49970;54.976;73.248;2023-06-14T00:17:38;101170.94;;;10.79;63.01
63819;BME280;49970;54.976;73.248;2023-06-14T00:21:34;101162.47;;;10.72;62.80
63819;BME280;49970;54.976;73.248;2023-06-14T00:25:27;101164.31;;;10.86;62.05
63819;BME280;49970;54.976;73.248;2023-06-14T00:29:19;101168.13;;;10.96;62.30
63819;BME280;49970;54.976;73.248;2023-06-14T00:36:59;101174.97;;;11.15;61.33
63819;BME280;49970;54.976;73.248;2023-06-14T00:41:15;101170.94;;;11.23;61.62
63819;BME280;49970;54.976;73.248;2023-06-14T00:45:06;101173.91;;;11.33;61.48
63819;BME280;49970;54.976;73.248;2023-06-14T00:48:58;101178.72;;;11.41;60.82
63819;BME280;49970;54.976;73.248;2023-06-14T00:53:13;101178.34;;;11.47;61.69
63819;BME280;49970;54.976;73.248;2023-06-14T00:57:04;101177.97;;;11.53;61.60
63819;BME280;49970;54.976;73.248;2023-06-14T01:00:55;101186.03;;;11.66;62.10
63819;BME280;49970;54.976;73.248;2023-06-14T01:05:11;101187.00;;;11.79;62.02
63819;BME280;49970;54.976;73.248;2023-06-14T01:16:46;101198.38;;;12.10;61.22
63819;BME280;49970;54.976;73.248;2023-06-14T01:20:37;101196.94;;;12.18;60.85
63819;BME280;49970;54.976;73.248;2023-06-14T01:24:34;101190.94;;;12.29;61.31
63819;BME280;49970;54.976;73.248;2023-06-14T01:28:25;101190.13;;;12.41;61.91
63819;BME280;49970;54.976;73.248;2023-06-14T01:32:16;101193.72;;;12.55;60.83
63819;BME280;49970;54.976;73.248;2023-06-14T01:36:07;101189.31;;;12.68;60.53
63819;BME280;49970;54.976;73.248;2023-06-14T01:43:47;101194.56;;;12.95;59.21
63819;BME280;49970;54.976;73.248;2023-06-14T01:51:51;101196.66;;;13.17;58.05
63819;BME280;49970;54.976;73.248;2023-06-14T01:55:42;101187.44;;;13.35;57.08
63819;BME280;49970;54.976;73.248;2023-06-14T01:59:58;101192.25;;;13.56;56.67
63819;BME280;49970;54.976;73.248;2023-06-14T02:04:14;101191.13;;;14.09;56.23
63819;BME280;49970;54.976;73.248;2023-06-14T02:08:06;101184.00;;;14.70;54.66
63819;BME280;49970;54.976;73.248;2023-06-14T02:11:56;101188.69;;;15.26;53.70
63819;BME280;49970;54.976;73.248;2023-06-14T02:15:52;101186.28;;;15.45;54.75
63819;BME280;49970;54.976;73.248;2023-06-14T02:19:49;101187.81;;;15.72;53.29
63819;BME280;49970;54.976;73.248;2023-06-14T02:48:14;101179.50;;;18.99;45.26
63819;BME280;49970;54.976;73.248;2023-06-14T02:50:41;101177.47;;;18.62;46.41
63819;BME280;49970;54.976;73.248;2023-06-14T02:53:07;101176.34;;;18.64;46.52
63819;BME280;49970;54.976;73.248;2023-06-14T02:55:33;101179.19;;;18.73;46.05
63819;BME280;49970;54.976;73.248;2023-06-14T02:58:06;101179.19;;;18.73;45.54
63819;BME280;49970;54.976;73.248;2023-06-14T03:00:33;101168.59;;;18.81;45.20
63819;BME280;49970;54.976;73.248;2023-06-14T03:03:01;101169.63;;;18.89;45.22
63819;BME280;49970;54.976;73.248;2023-06-14T03:05:28;101172.53;;;19.06;44.79
63819;BME280;49970;54.976;73.248;2023-06-14T03:07:54;101170.72;;;19.16;44.33
63819;BME280;49970;54.976;73.248;2023-06-14T03:10:22;101163.78;;;19.04;44.23
63819;BME280;49970;54.976;73.248;2023-06-14T03:12:50;101165.34;;;18.97;42.89
63819;BME280;49970;54.976;73.248;2023-06-14T03:15:20;101157.75;;;18.82;43.07
63819;BME280;49970;54.976;73.248;2023-06-14T03:17:49;101158.00;;;18.79;43.47
63819;BME280;49970;54.976;73.248;2023-06-14T03:20:17;101150.66;;;18.72;43.40
63819;BME280;49970;54.976;73.248;2023-06-14T03:22:46;101162.69;;;18.87;42.65
63819;BME280;49970;54.976;73.248;2023-06-14T03:25:14;101152.63;;;19.08;42.79
63819;BME280;49970;54.976;73.248;2023-06-14T03:28:03;101146.81;;;19.13;42.15
63819;BME280;49970;54.976;73.248;2023-06-14T03:35:05;101154.84;;;19.23;40.84
63819;BME280;49970;54.976;73.248;2023-06-14T03:37:33;101156.28;;;18.98;39.97
63819;BME280;49970;54.976;73.248;2023-06-14T03:40:00;101156.06;;;18.81;41.14
63819;BME280;49970;54.976;73.248;2023-06-14T03:42:27;101152.81;;;18.78;41.35
63819;BME280;49970;54.976;73.248;2023-06-14T03:44:54;101157.03;;;18.90;41.07
63819;BME280;49970;54.976;73.248;2023-06-14T03:47:24;101159.13;;;19.15;41.39
63819;BME280;49970;54.976;73.248;2023-06-14T03:49:52;101153.16;;;19.22;40.17
63819;BME280;49970;54.976;73.248;2023-06-14T03:52:18;101149.75;;;19.29;40.93
63819;BME280;49970;54.976;73.248;2023-06-14T03:54:46;101149.75;;;19.29;41.27
63819;BME280;49970;54.976;73.248;2023-06-14T03:57:13;101151.47;;;19.21;40.68
63819;BME280;49970;54.976;73.248;2023-06-14T03:59:40;101120.13;;;19.02;41.10
63819;BME280;49970;54.976;73.248;2023-06-14T04:02:07;101140.75;;;19.01;41.52
63819;BME280;49970;54.976;73.248;2023-06-14T04:04:35;101145.16;;;18.92;41.27
63819;BME280;49970;54.976;73.248;2023-06-14T04:07:02;101148.66;;;18.93;41.62
63819;BME280;49970;54.976;73.248;2023-06-14T04:09:32;101126.34;;;18.92;42.01
63819;BME280;49970;54.976;73.248;2023-06-14T04:11:59;101140.41;;;19.33;41.45
63819;BME280;49970;54.976;73.248;2023-06-14T04:14:25;101142.63;;;19.48;41.31
63819;BME280;49970;54.976;73.248;2023-06-14T04:16:51;101144.44;;;19.57;41.13
63819;BME280;49970;54.976;73.248;2023-06-14T04:19:19;101137.16;;;19.77;40.16
63819;BME280;49970;54.976;73.248;2023-06-14T04:21:49;101135.41;;;19.95;40.40
63819;BME280;49970;54.976;73.248;2023-06-14T04:52:51;101114.28;;;20.18;40.54
63819;BME280;49970;54.976;73.248;2023-06-14T04:56:47;101110.38;;;20.12;40.65
63819;BME280;49970;54.976;73.248;2023-06-14T04:59:14;101105.09;;;20.21;39.26
63819;BME280;49970;54.976;73.248;2023-06-14T05:01:41;101110.00;;;20.07;39.52
63819;BME280;49970;54.976;73.248;2023-06-14T05:04:07;101102.47;;;20.11;40.23
63819;BME280;49970;54.976;73.248;2023-06-14T05:06:34;101107.84;;;20.11;39.55
63819;BME280;49970;54.976;73.248;2023-06-14T05:09:00;101105.53;;;20.16;40.06
63819;BME280;49970;54.976;73.248;2023-06-14T05:11:26;101099.88;;;20.19;39.37
63819;BME280;49970;54.976;73.248;2023-06-14T05:13:53;101098.47;;;20.15;39.51
63819;BME280;49970;54.976;73.248;2023-06-14T05:16:19;101097.94;;;20.29;38.74
63819;BME280;49970;54.976;73.248;2023-06-14T05:18:46;101089.25;;;20.35;38.33
63819;BME280;49970;54.976;73.248;2023-06-14T05:21:13;101083.34;;;20.32;39.09
63819;BME280;49970;54.976;73.248;2023-06-14T05:23:45;101087.75;;;20.51;38.90
63819;BME280;49970;54.976;73.248;2023-06-14T05:26:13;101082.91;;;20.54;38.88
63819;BME280;49970;54.976;73.248;2023-06-14T05:28:39;101102.47;;;20.47;38.86
63819;BME280;49970;54.976;73.248;2023-06-14T05:31:05;101087.91;;;20.49;38.92
63819;BME280;49970;54.976;73.248;2023-06-14T05:33:31;101070.19;;;20.47;38.01
63819;BME280;49970;54.976;73.248;2023-06-14T05:35:58;101074.94;;;20.35;39.05
63819;BME280;49970;54.976;73.248;2023-06-14T05:38:24;101075.66;;;20.37;38.64
63819;BME280;49970;54.976;73.248;2023-06-14T05:40:52;101066.03;;;20.52;39.40
63819;BME280;49970;54.976;73.248;2023-06-14T05:43:19;101062.03;;;20.74;38.41
63819;BME280;49970;54.976;73.248;2023-06-14T05:45:45;101065.69;;;20.91;38.67
63819;BME280;49970;54.976;73.248;2023-06-14T05:48:11;101029.97;;;20.89;38.29
63819;BME280;49970;54.976;73.248;2023-06-14T05:50:38;101035.59;;;20.96;38.58
63819;BME280;49970;54.976;73.248;2023-06-14T05:53:04;101053.38;;;21.14;38.00
63819;BME280;49970;54.976;73.248;2023-06-14T05:55:30;101072.28;;;21.23;38.26
63819;BME280;49970;54.976;73.248;2023-06-14T05:57:57;101061.84;;;21.20;37.71
63819;BME280;49970;54.976;73.248;2023-06-14T06:00:23;101044.94;;;20.83;37.93
63819;BME280;49970;54.976;73.248;2023-06-14T06:02:49;101055.22;;;20.88;38.78
63819;BME280;49970;54.976;73.248;2023-06-14T06:05:16;101051.09;;;21.02;39.17
63819;BME280;49970;54.976;73.248;2023-06-14T06:07:42;101050.66;;;21.14;38.24
63819;BME280;49970;54.976;73.248;2023-06-14T06:10:11;101037.31;;;21.05;37.77
63819;BME280;49970;54.976;73.248;2023-06-14T06:12:37;101039.28;;;20.95;38.11
63819;BME280;49970;54.976;73.248;2023-06-14T06:15:04;101044.72;;;21.03;38.72
63819;BME280;49970;54.976;73.248;2023-06-14T06:17:30;101040.13;;;21.21;37.97
63819;BME280;49970;54.976;73.248;2023-06-14T06:19:56;101042.59;;;21.41;37.52
63819;BME280;49970;54.976;73.248;2023-06-14T06:22:23;101033.00;;;21.46;37.38
63819;BME280;49970;54.976;73.248;2023-06-14T06:24:49;101032.69;;;21.49;38.46
63819;BME280;49970;54.976;73.248;2023-06-14T06:27:39;101031.84;;;21.57;37.97
63819;BME280;49970;54.976;73.248;2023-06-14T06:30:50;101026.69;;;21.72;37.83
63819;BME280;49970;54.976;73.248;2023-06-14T06:33:17;101026.88;;;21.70;37.40
63819;BME280;49970;54.976;73.248;2023-06-14T06:35:43;101015.03;;;21.55;38.09
63819;BME280;49970;54.976;73.248;2023-06-14T06:38:09;101013.81;;;21.41;37.05
63819;BME280;49970;54.976;73.248;2023-06-14T06:40:36;101009.22;;;21.33;38.21
63819;BME280;49970;54.976;73.248;2023-06-14T06:43:03;100998.66;;;21.48;38.17
63819;BME280;49970;54.976;73.248;2023-06-14T06:45:29;100993.16;;;21.66;37.68
63819;BME280;49970;54.976;73.248;2023-06-14T06:47:56;100990.97;;;21.78;36.84
63819;BME280;49970;54.976;73.248;2023-06-14T06:50:22;100981.06;;;21.78;37.01
63819;BME280;49970;54.976;73.248;2023-06-14T06:52:49;100975.66;;;21.78;37.29
63819;BME280;49970;54.976;73.248;2023-06-14T06:55:15;100992.88;;;21.94;37.49
63819;BME280;49970;54.976;73.248;2023-06-14T06:57:41;100982.44;;;21.99;36.84
63819;BME280;49970;54.976;73.248;2023-06-14T07:00:08;100985.13;;;21.99;35.88
63819;BME280;49970;54.976;73.248;2023-06-14T07:02:36;100975.31;;;21.89;36.34
63819;BME280;49970;54.976;73.248;2023-06-14T07:05:02;100975.47;;;21.72;36.12
63819;BME280;49970;54.976;73.248;2023-06-14T07:07:28;100976.63;;;21.53;36.61
63819;BME280;49970;54.976;73.248;2023-06-14T07:09:55;100970.16;;;21.37;36.43
63819;BME280;49970;54.976;73.248;2023-06-14T07:12:23;100969.66;;;21.42;36.80
63819;BME280;49970;54.976;73.248;2023-06-14T07:14:49;100966.13;;;21.42;37.41
63819;BME280;49970;54.976;73.248;2023-06-14T07:17:16;100964.13;;;21.52;37.73
63819;BME280;49970;54.976;73.248;2023-06-14T07:19:42;100966.19;;;21.66;37.25
63819;BME280;49970;54.976;73.248;2023-06-14T07:22:10;100960.31;;;21.79;37.16
63819;BME280;49970;54.976;73.248;2023-06-14T07:24:36;100964.19;;;21.84;37.59
63819;BME280;49970;54.976;73.248;2023-06-14T07:27:22;100963.69;;;21.81;36.88
63819;BME280;49970;54.976;73.248;2023-06-14T07:59:48;100911.59;;;21.64;36.86
63819;BME280;49970;54.976;73.248;2023-06-14T08:03:39;100918.34;;;21.76;37.49
63819;BME280;49970;54.976;73.248;2023-06-14T08:07:30;100909.94;;;21.79;37.58
63819;BME280;49970;54.976;73.248;2023-06-14T08:11:21;100912.78;;;21.78;37.15
63819;BME280;49970;54.976;73.248;2023-06-14T08:15:37;100915.13;;;21.81;37.49
63819;BME280;49970;54.976;73.248;2023-06-14T08:19:31;100907.91;;;21.98;38.00
63819;BME280;49970;54.976;73.248;2023-06-14T08:27:12;100900.50;;;21.92;37.84
63819;BME280;49970;54.976;73.248;2023-06-14T08:31:03;100898.47;;;22.02;37.05
63819;BME280;49970;54.976;73.248;2023-06-14T08:34:14;100894.41;;;22.06;37.57
63819;BME280;49970;54.976;73.248;2023-06-14T08:36:40;100898.47;;;22.26;38.09
63819;BME280;49970;54.976;73.248;2023-06-14T08:39:07;100889.03;;;22.30;37.52
63819;BME280;49970;54.976;73.248;2023-06-14T08:41:35;100876.88;;;22.26;37.67
63819;BME280;49970;54.976;73.248;2023-06-14T08:44:01;100872.50;;;22.33;37.89
63819;BME280;49970;54.976;73.248;2023-06-14T08:46:32;100887.31;;;22.37;37.34
63819;BME280;49970;54.976;73.248;2023-06-14T08:49:01;100880.91;;;22.30;37.32
63819;BME280;49970;54.976;73.248;2023-06-14T08:51:27;100873.16;;;22.27;37.51
63819;BME280;49970;54.976;73.248;2023-06-14T09:23:19;100849.75;;;21.79;38.46
63819;BME280;49970;54.976;73.248;2023-06-14T09:31:02;100818.88;;;21.98;38.88
63819;BME280;49970;54.976;73.248;2023-06-14T09:35:11;100820.41;;;22.08;38.49
63819;BME280;49970;54.976;73.248;2023-06-14T09:37:40;100807.06;;;22.07;37.88
63819;BME280;49970;54.976;73.248;2023-06-14T09:40:07;100824.94;;;22.24;37.66
63819;BME280;49970;54.976;73.248;2023-06-14T09:42:54;100824.94;;;22.24;37.91
63819;BME280;49970;54.976;73.248;2023-06-14T09:46:26;100815.50;;;22.28;38.69
63819;BME280;49970;54.976;73.248;2023-06-14T09:48:54;100815.63;;;22.35;38.51
63819;BME280;49970;54.976;73.248;2023-06-14T09:51:22;100808.72;;;22.41;38.48
63819;BME280;49970;54.976;73.248;2023-06-14T09:53:50;100815.25;;;22.46;38.04
63819;BME280;49970;54.976;73.248;2023-06-14T09:56:32;100805.50;;;22.45;37.55
63819;BME280;49970;54.976;73.248;2023-06-14T09:59:04;100796.72;;;22.43;37.59
63819;BME280;49970;54.976;73.248;2023-06-14T10:01:31;100797.91;;;22.41;37.40
63819;BME280;49970;54.976;73.248;2023-06-14T10:04:25;100788.63;;;22.35;37.90
63819;BME280;49970;54.976;73.248;2023-06-14T10:08:17;100776.00;;;22.27;37.43
63819;BME280;49970;54.976;73.248;2023-06-14T10:12:32;100763.22;;;22.21;38.07
63819;BME280;49970;54.976;73.248;2023-06-14T10:16:12;100777.69;;;22.36;38.61
63819;BME280;49970;54.976;73.248;2023-06-14T10:29:07;100749.34;;;22.41;38.44
63819;BME280;49970;54.976;73.248;2023-06-14T10:31:45;100757.56;;;22.47;38.79
63819;BME280;49970;54.976;73.248;2023-06-14T11:06:13;100702.56;;;22.40;40.04
63819;BME280;49970;54.976;73.248;2023-06-14T11:11:13;100690.09;;;22.39;39.28
63819;BME280;49970;54.976;73.248;2023-06-14T11:13:43;100688.94;;;22.42;39.21
63819;BME280;49970;54.976;73.248;2023-06-14T11:16:14;100690.25;;;22.46;39.51
63819;BME280;49970;54.976;73.248;2023-06-14T11:18:42;100683.81;;;22.47;39.71
63819;BME280;49970;54.976;73.248;2023-06-14T11:21:09;100680.09;;;22.48;39.52
63819;BME280;49970;54.976;73.248;2023-06-14T11:23:36;100664.63;;;22.42;39.26
63819;BME280;49970;54.976;73.248;2023-06-14T11:26:03;100667.25;;;22.58;39.57
63819;BME280;49970;54.976;73.248;2023-06-14T11:28:37;100669.75;;;22.59;39.20
63819;BME280;49970;54.976;73.248;2023-06-14T11:58:47;100629.75;;;22.32;40.29
63819;BME280;49970;54.976;73.248;2023-06-14T12:01:17;100624.19;;;22.33;40.82
63819;BME280;49970;54.976;73.248;2023-06-14T12:03:53;100630.44;;;22.34;40.82
63819;BME280;49970;54.976;73.248;2023-06-14T12:06:30;100626.53;;;22.36;40.44
63819;BME280;49970;54.976;73.248;2023-06-14T12:09:06;100624.50;;;22.38;40.49
63819;BME280;49970;54.976;73.248;2023-06-14T12:11:38;100614.72;;;22.37;41.06
63819;BME280;49970;54.976;73.248;2023-06-14T12:14:05;100612.50;;;22.41;40.37
63819;BME280;49970;54.976;73.248;2023-06-14T12:16:37;100615.66;;;22.45;40.43
63819;BME280;49970;54.976;73.248;2023-06-14T12:19:17;100617.84;;;22.49;40.64
63819;BME280;49970;54.976;73.248;2023-06-14T12:21:46;100619.53;;;22.50;40.52
63819;BME280;49970;54.976;73.248;2023-06-14T12:24:16;100614.28;;;22.49;41.19
63819;BME280;49970;54.976;73.248;2023-06-14T12:26:43;100605.19;;;22.50;40.90
63819;BME280;49970;54.976;73.248;2023-06-14T12:29:09;100601.19;;;22.46;41.24
63819;BME280;49970;54.976;73.248;2023-06-14T12:31:37;100602.00;;;22.46;40.77
63819;BME280;49970;54.976;73.248;2023-06-14T12:34:04;100605.75;;;22.45;40.92
63819;BME280;49970;54.976;73.248;2023-06-14T12:36:31;100610.28;;;22.45;41.35
63819;BME280;49970;54.976;73.248;2023-06-14T12:38:58;100598.81;;;22.43;40.76
63819;BME280;49970;54.976;73.248;2023-06-14T12:41:24;100600.34;;;22.45;40.65
63819;BME280;49970;54.976;73.248;2023-06-14T12:43:53;100598.28;;;22.47;40.25
63819;BME280;49970;54.976;73.248;2023-06-14T12:46:19;100602.66;;;22.48;40.64
63819;BME280;49970;54.976;73.248;2023-06-14T12:48:45;100598.09;;;22.49;40.73
63819;BME280;49970;54.976;73.248;2023-06-14T12:51:11;100594.41;;;22.50;40.47
63819;BME280;49970;54.976;73.248;2023-06-14T12:53:38;100589.66;;;22.52;40.63
63819;BME280;49970;54.976;73.248;2023-06-14T12:56:04;100587.97;;;22.51;40.40
63819;BME280;49970;54.976;73.248;2023-06-14T12:58:31;100564.28;;;22.38;41.02
63819;BME280;49970;54.976;73.248;2023-06-14T13:00:57;100580.41;;;22.46;41.31
63819;BME280;49970;54.976;73.248;2023-06-14T13:03:24;100581.91;;;22.49;40.88
63819;BME280;49970;54.976;73.248;2023-06-14T13:05:50;100583.75;;;22.48;41.02
63819;BME280;49970;54.976;73.248;2023-06-14T13:08:16;100577.53;;;22.48;40.98
63819;BME280;49970;54.976;73.248;2023-06-14T13:10:42;100575.03;;;22.46;41.27
63819;BME280;49970;54.976;73.248;2023-06-14T13:13:09;100569.63;;;22.46;40.80
63819;BME280;49970;54.976;73.248;2023-06-14T13:15:37;100565.41;;;22.44;40.77
63819;BME280;49970;54.976;73.248;2023-06-14T13:18:04;100569.97;;;22.43;41.20
63819;BME280;49970;54.976;73.248;2023-06-14T13:20:30;100558.69;;;22.40;41.30
63819;BME280;49970;54.976;73.248;2023-06-14T13:22:56;100564.56;;;22.43;41.36
63819;BME280;49970;54.976;73.248;2023-06-14T13:25:23;100560.84;;;22.44;41.06
63819;BME280;49970;54.976;73.248;2023-06-14T13:27:49;100561.69;;;22.45;41.42
63819;BME280;49970;54.976;73.248;2023-06-14T13:30:16;100550.59;;;22.40;41.44
63819;BME280;49970;54.976;73.248;2023-06-14T13:32:42;100565.41;;;22.44;41.44
63819;BME280;49970;54.976;73.248;2023-06-14T13:35:08;100551.06;;;22.43;40.99
63819;BME280;49970;54.976;73.248;2023-06-14T13:37:35;100537.16;;;22.31;41.56
63819;BME280;49970;54.976;73.248;2023-06-14T13:40:01;100553.13;;;22.41;41.26
63819;BME280;49970;54.976;73.248;2023-06-14T13:42:28;100550.44;;;22.41;41.16
63819;BME280;49970;54.976;73.248;2023-06-14T13:44:55;100537.09;;;22.40;41.15
63819;BME280;49970;54.976;73.248;2023-06-14T13:47:21;100543.72;;;22.37;41.90
63819;BME280;49970;54.976;73.248;2023-06-14T13:49:47;100547.78;;;22.33;42.23
63819;BME280;49970;54.976;73.248;2023-06-14T13:52:13;100550.66;;;22.31;41.70
63819;BME280;49970;54.976;73.248;2023-06-14T13:54:40;100548.78;;;22.32;41.68
63819;BME280;49970;54.976;73.248;2023-06-14T13:57:26;100550.00;;;22.29;41.61
63819;BME280;49970;54.976;73.248;2023-06-14T14:00:39;100552.72;;;22.29;41.54
63819;BME280;49970;54.976;73.248;2023-06-14T14:03:10;100547.47;;;22.28;41.68
63819;BME280;49970;54.976;73.248;2023-06-14T14:05:41;100553.06;;;22.26;41.64
63819;BME280;49970;54.976;73.248;2023-06-14T14:08:12;100541.78;;;22.23;41.66
63819;BME280;49970;54.976;73.248;2023-06-14T14:10:43;100553.25;;;22.25;41.91
63819;BME280;49970;54.976;73.248;2023-06-14T14:13:15;100545.50;;;22.22;41.55
63819;BME280;49970;54.976;73.248;2023-06-14T14:15:45;100537.59;;;22.20;41.59
63819;BME280;49970;54.976;73.248;2023-06-14T14:18:18;100534.22;;;22.18;41.54
63819;BME280;49970;54.976;73.248;2023-06-14T14:20:50;100532.75;;;22.16;41.96
63819;BME280;49970;54.976;73.248;2023-06-14T14:23:21;100533.72;;;22.15;42.09
63819;BME280;49970;54.976;73.248;2023-06-14T14:25:52;100531.03;;;22.15;42.03
63819;BME280;49970;54.976;73.248;2023-06-14T14:28:23;100523.13;;;22.13;41.72
63819;BME280;49970;54.976;73.248;2023-06-14T14:30:51;100520.25;;;22.06;42.21
63819;BME280;49970;54.976;73.248;2023-06-14T14:33:21;100528.69;;;22.11;42.49
63819;BME280;49970;54.976;73.248;2023-06-14T14:35:49;100521.97;;;22.07;42.44
63819;BME280;49970;54.976;73.248;2023-06-14T14:38:19;100518.59;;;22.05;42.59
63819;BME280;49970;54.976;73.248;2023-06-14T15:09:23;100501.56;;;21.43;44.28
63819;BME280;49970;54.976;73.248;2023-06-14T15:41:04;100496.69;;;20.82;45.20
63819;BME280;49970;54.976;73.248;2023-06-14T15:43:30;100506.44;;;20.83;45.44
63819;BME280;49970;54.976;73.248;2023-06-14T15:46:16;100496.34;;;20.77;45.51
63819;BME280;49970;54.976;73.248;2023-06-14T15:49:48;100499.22;;;20.68;45.37
63819;BME280;49970;54.976;73.248;2023-06-14T15:52:14;100497.72;;;20.65;45.62
63819;BME280;49970;54.976;73.248;2023-06-14T15:54:40;100501.59;;;20.62;45.83
63819;BME280;49970;54.976;73.248;2023-06-14T15:57:06;100503.13;;;20.57;45.82
63819;BME280;49970;54.976;73.248;2023-06-14T16:28:08;100490.22;;;19.77;46.63
63819;BME280;49970;54.976;73.248;2023-06-14T16:30:34;100510.06;;;19.84;46.53
63819;BME280;49970;54.976;73.248;2023-06-14T17:01:53;100509.72;;;19.45;47.17
63819;BME280;49970;54.976;73.248;2023-06-14T17:05:56;100491.72;;;19.37;47.11
63819;BME280;49970;54.976;73.248;2023-06-14T17:08:22;100493.25;;;19.40;47.14
63819;BME280;49970;54.976;73.248;2023-06-14T17:10:50;100505.00;;;19.39;47.02
63819;BME280;49970;54.976;73.248;2023-06-14T17:13:17;100504.50;;;19.35;47.08
63819;BME280;49970;54.976;73.248;2023-06-14T17:15:43;100496.06;;;19.30;47.18
63819;BME280;49970;54.976;73.248;2023-06-14T17:18:11;100477.56;;;19.19;47.16
63819;BME280;49970;54.976;73.248;2023-06-14T17:49:14;100479.41;;;18.92;47.45
63819;BME280;49970;54.976;73.248;2023-06-14T17:51:40;100482.81;;;18.95;47.68
63819;BME280;49970;54.976;73.248;2023-06-14T17:54:06;100463.47;;;18.91;47.30
63819;BME280;49970;54.976;73.248;2023-06-14T17:56:32;100476.22;;;18.89;47.52
63819;BME280;49970;54.976;73.248;2023-06-14T17:58:59;100465.28;;;18.82;47.61
63819;BME280;49970;54.976;73.248;2023-06-14T18:29:34;100465.25;;;18.56;48.17
63819;BME280;49970;54.976;73.248;2023-06-14T18:33:50;100460.19;;;18.53;48.12
63819;BME280;49970;54.976;73.248;2023-06-14T18:37:41;100456.97;;;18.50;48.26
63819;BME280;49970;54.976;73.248;2023-06-14T18:41:32;100468.00;;;18.47;48.29
63819;BME280;49970;54.976;73.248;2023-06-14T18:49:36;100455.00;;;18.34;48.32
63819;BME280;49970;54.976;73.248;2023-06-14T18:53:28;100459.00;;;18.30;48.56
63819;BME280;49970;54.976;73.248;2023-06-14T18:57:19;100446.75;;;18.27;48.76
63819;BME280;49970;54.976;73.248;2023-06-14T19:05:00;100444.69;;;18.21;48.71
63819;BME280;49970;54.976;73.248;2023-06-14T19:09:15;100438.41;;;18.12;48.92
63819;BME280;49970;54.976;73.248;2023-06-14T19:13:06;100436.19;;;18.08;48.89
63819;BME280;49970;54.976;73.248;2023-06-14T19:20:46;100427.94;;;18.01;49.19
63819;BME280;49970;54.976;73.248;2023-06-14T19:28:50;100427.19;;;17.91;49.32
63819;BME280;49970;54.976;73.248;2023-06-14T19:32:43;100423.28;;;17.85;49.32
63819;BME280;49970;54.976;73.248;2023-06-14T19:36:34;100413.16;;;17.79;49.43
63819;BME280;49970;54.976;73.248;2023-06-14T19:40:25;100412.50;;;17.77;49.72
63819;BME280;49970;54.976;73.248;2023-06-14T19:44:16;100408.41;;;17.73;49.85
63819;BME280;49970;54.976;73.248;2023-06-14T19:48:07;100406.84;;;17.71;49.89
63819;BME280;49970;54.976;73.248;2023-06-14T19:59:37;100400.75;;;17.60;50.03
63819;BME280;49970;54.976;73.248;2023-06-14T20:07:17;100387.94;;;17.54;50.09
63819;BME280;49970;54.976;73.248;2023-06-14T20:11:08;100393.47;;;17.53;50.15
63819;BME280;49970;54.976;73.248;2023-06-14T20:15:01;100389.09;;;17.52;50.09
